Time;durP1;ratioP1;P1;durP2;ratioP2;P2;SDS_P1;SDS_P2;PMS_P1;PMS_P2;Temp;Humidity;BMP_temperature;BMP_pressure;BME280_temperature;BME280_humidity;BME280_pressure;Samples;Min_cycle;Max_cycle;Signal;HPM_P1;HPM_P2
2023/02/04 00:00:12;;;;;;;3.03;2.00;;;3.80;99.90;;;;;;4923709;29;20378;-81
2023/02/04 00:02:42;;;;;;;2.40;2.25;;;3.70;99.90;;;;;;4920420;29;20204;-81
2023/02/04 00:05:10;;;;;;;2.15;1.80;;;3.60;99.90;;;;;;4920689;29;20214;-81
2023/02/04 00:07:37;;;;;;;2.80;2.28;;;3.60;99.90;;;;;;4922299;29;20230;-82
2023/02/04 00:10:05;;;;;;;1.80;1.70;;;3.10;1.00;;;;;;4921950;29;20242;-82
2023/02/04 00:12:33;;;;;;;3.33;1.90;;;3.20;1.00;;;;;;4921390;29;20259;-82
2023/02/04 00:15:00;;;;;;;3.53;2.25;;;3.40;1.00;;;;;;4921724;29;20216;-81
2023/02/04 00:17:27;;;;;;;3.15;2.00;;;3.30;1.00;;;;;;4921849;29;20218;-82
2023/02/04 00:19:54;;;;;;;3.35;3.05;;;2.90;1.00;;;;;;4921465;29;20319;-81
2023/02/04 00:22:21;;;;;;;4.82;2.53;;;3.10;1.00;;;;;;4923668;29;20212;-81
2023/02/04 00:24:49;;;;;;;1.95;1.85;;;3.10;1.00;;;;;;4938501;28;20199;-82
2023/02/04 00:27:16;;;;;;;2.95;2.65;;;3.10;1.00;;;;;;4940049;29;20255;-82
2023/02/04 00:29:44;;;;;;;1.98;1.88;;;3.00;1.00;;;;;;4923440;29;20246;-80
2023/02/04 00:32:11;;;;;;;2.50;1.98;;;3.00;1.00;;;;;;4923025;29;20214;-82
2023/02/04 00:34:38;;;;;;;5.28;2.83;;;3.00;1.00;;;;;;4923615;29;20235;-79
2023/02/04 00:37:05;;;;;;;2.40;2.20;;;3.00;1.00;;;;;;4935094;29;20243;-81
2023/02/04 00:39:31;;;;;;;4.25;2.17;;;3.10;1.00;;;;;;4938808;29;20267;-82
2023/02/04 00:41:58;;;;;;;1.88;1.75;;;3.10;1.00;;;;;;4934330;29;20295;-83
2023/02/04 00:44:25;;;;;;;1.90;1.80;;;2.80;1.00;;;;;;4923115;29;20212;-82
2023/02/04 00:46:53;;;;;;;1.48;1.38;;;3.00;1.00;;;;;;4922666;29;20678;-83
2023/02/04 00:49:20;;;;;;;1.92;1.83;;;2.90;1.00;;;;;;4920907;29;20266;-82
2023/02/04 00:51:47;;;;;;;2.97;1.50;;;2.90;1.00;;;;;;4921583;29;20257;-83
2023/02/04 00:54:15;;;;;;;2.15;2.05;;;2.80;1.00;;;;;;4922931;29;20212;-81
2023/02/04 00:56:42;;;;;;;2.78;1.50;;;2.70;1.00;;;;;;4929016;29;20620;-79
2023/02/04 00:59:09;;;;;;;2.17;1.70;;;2.50;1.00;;;;;;4926382;29;20227;-79
2023/02/04 01:01:36;;;;;;;2.83;1.70;;;2.70;1.00;;;;;;4926689;29;20211;-81
2023/02/04 01:04:05;;;;;;;1.70;1.40;;;2.60;1.00;;;;;;4926159;29;20208;-81
2023/02/04 01:06:32;;;;;;;4.20;2.15;;;2.60;1.00;;;;;;4926280;29;20207;-82
2023/02/04 01:09:00;;;;;;;1.80;1.70;;;2.70;1.00;;;;;;4927462;29;20263;-83
2023/02/04 01:11:27;;;;;;;1.98;1.50;;;2.70;1.00;;;;;;4927886;29;20628;-82
2023/02/04 01:13:54;;;;;;;2.00;1.80;;;2.70;1.00;;;;;;4929258;29;20291;-79
2023/02/04 01:16:21;;;;;;;1.30;1.10;;;2.70;1.00;;;;;;4935777;29;20211;-79
2023/02/04 01:18:48;;;;;;;3.35;2.05;;;2.80;1.00;;;;;;4966058;23;20561;-82
2023/02/04 01:21:16;;;;;;;2.80;1.98;;;2.40;1.00;;;;;;4956729;29;20188;-82
2023/02/04 01:23:43;;;;;;;1.88;1.75;;;2.70;1.00;;;;;;4955844;29;20274;-82
2023/02/04 01:26:10;;;;;;;1.98;1.70;;;2.30;1.00;;;;;;4944015;29;20581;-81
2023/02/04 01:28:37;;;;;;;2.95;1.83;;;2.60;1.00;;;;;;4944751;29;20420;-82
2023/02/04 01:31:04;;;;;;;2.92;2.30;;;2.70;1.00;;;;;;4924259;29;20204;-82
2023/02/04 01:33:31;;;;;;;2.88;1.85;;;2.60;1.00;;;;;;4926618;29;20287;-82
2023/02/04 01:35:58;;;;;;;3.03;1.73;;;2.60;1.00;;;;;;4929342;29;20691;-82
2023/02/04 01:38:26;;;;;;;2.33;2.05;;;2.70;1.00;;;;;;4927199;29;20295;-81
2023/02/04 01:40:53;;;;;;;5.05;1.70;;;2.60;1.00;;;;;;4924191;29;20298;-81
2023/02/04 01:43:21;;;;;;;2.08;1.88;;;2.50;1.00;;;;;;4924212;29;20204;-80
2023/02/04 01:45:48;;;;;;;3.15;2.08;;;2.60;1.00;;;;;;4924922;29;20204;-82
2023/02/04 01:48:19;;;;;;;3.13;2.28;;;2.60;1.00;;;;;;4924030;29;20222;-82
2023/02/04 01:50:46;;;;;;;1.42;1.33;;;2.20;1.00;;;;;;4924678;29;20216;-81
2023/02/04 01:53:14;;;;;;;1.63;1.52;;;2.50;1.00;;;;;;4931996;29;20219;-81
2023/02/04 01:55:42;;;;;;;1.95;1.50;;;2.50;1.00;;;;;;4938367;29;20280;-81
2023/02/04 01:58:11;;;;;;;1.63;1.52;;;2.50;1.00;;;;;;4938461;29;20204;-80
2023/02/04 02:00:38;;;;;;;2.00;1.80;;;2.50;1.00;;;;;;4929534;29;20228;-82
2023/02/04 02:03:08;;;;;;;2.60;2.28;;;2.50;1.00;;;;;;4923907;29;20220;-82
2023/02/04 02:05:39;;;;;;;1.42;1.33;;;2.40;1.00;;;;;;4923519;29;20208;-82
2023/02/04 02:08:07;;;;;;;3.65;1.60;;;2.40;1.00;;;;;;4923984;29;20279;-81
2023/02/04 02:10:35;;;;;;;4.10;2.03;;;2.40;1.00;;;;;;4924458;29;20232;-81
2023/02/04 02:13:03;;;;;;;3.53;1.40;;;2.40;1.00;;;;;;4924648;29;20211;-81
2023/02/04 02:15:31;;;;;;;4.80;1.95;;;2.50;1.00;;;;;;4924060;29;20277;-81
2023/02/04 02:17:57;;;;;;;3.97;2.00;;;2.50;1.00;;;;;;4923653;29;20302;-82
2023/02/04 02:20:27;;;;;;;5.35;1.90;;;2.80;1.00;;;;;;4923035;29;20231;-81
2023/02/04 02:23:02;;;;;;;2.10;2.00;;;2.30;1.00;;;;;;4923847;29;20197;-82
2023/02/04 02:25:31;;;;;;;3.58;1.90;;;2.50;1.00;;;;;;4922381;29;20667;-82
2023/02/04 02:28:00;;;;;;;1.85;1.60;;;2.60;1.00;;;;;;4922810;29;20747;-82
2023/02/04 02:30:28;;;;;;;3.22;1.77;;;2.60;1.00;;;;;;4922751;29;20319;-82
2023/02/04 02:32:55;;;;;;;1.55;1.45;;;2.60;99.90;;;;;;4922851;29;20231;-81
2023/02/04 02:35:22;;;;;;;2.97;1.33;;;2.60;99.90;;;;;;4925795;29;20211;-82
2023/02/04 02:37:49;;;;;;;2.00;1.83;;;2.60;99.90;;;;;;4942282;28;20195;-78
2023/02/04 02:40:16;;;;;;;1.70;1.60;;;2.50;99.90;;;;;;4942927;28;20322;-81
2023/02/04 02:42:47;;;;;;;3.05;1.40;;;2.50;99.90;;;;;;4942216;28;20226;-82
2023/02/04 02:45:21;;;;;;;3.78;1.63;;;2.50;99.90;;;;;;4934887;29;20263;-82
2023/02/04 02:47:49;;;;;;;4.43;1.85;;;2.50;99.90;;;;;;4936276;29;20600;-82
2023/02/04 02:50:19;;;;;;;1.67;1.58;;;2.40;99.90;;;;;;4937203;29;20309;-82
2023/02/04 02:52:46;;;;;;;2.45;1.73;;;2.50;1.00;;;;;;4938705;29;20256;-81
2023/02/04 02:55:16;;;;;;;3.53;2.13;;;2.30;1.00;;;;;;4938008;29;20279;-81
2023/02/04 02:57:45;;;;;;;1.85;1.70;;;2.30;1.00;;;;;;4933265;29;20673;-82
2023/02/04 03:00:16;;;;;;;1.73;1.63;;;2.30;1.00;;;;;;4924287;29;20730;-82
2023/02/04 03:02:44;;;;;;;1.65;1.55;;;2.30;1.00;;;;;;4923950;29;20212;-82
2023/02/04 03:05:13;;;;;;;2.63;1.80;;;2.30;1.00;;;;;;4923833;29;20627;-82
2023/02/04 03:07:39;;;;;;;3.95;1.85;;;2.20;1.00;;;;;;4927144;29;20218;-82
2023/02/04 03:10:07;;;;;;;1.55;1.45;;;2.20;1.00;;;;;;4927546;29;20238;-83
2023/02/04 03:12:34;;;;;;;5.18;1.65;;;2.20;1.00;;;;;;4924113;29;20254;-82
2023/02/04 03:15:04;;;;;;;4.50;2.25;;;2.20;1.00;;;;;;4928186;29;20204;-84
2023/02/04 03:17:31;;;;;;;3.38;1.65;;;2.40;1.00;;;;;;4922691;29;20299;-82
2023/02/04 03:19:58;;;;;;;4.30;1.90;;;2.20;1.00;;;;;;4922287;29;20242;-84
2023/02/04 03:22:26;;;;;;;4.20;2.00;;;2.10;1.00;;;;;;4927152;29;20212;-82
2023/02/04 03:24:52;;;;;;;3.47;1.95;;;2.20;1.00;;;;;;4923700;29;20648;-83
2023/02/04 03:27:19;;;;;;;1.70;1.60;;;2.10;1.00;;;;;;4923361;29;20211;-83
2023/02/04 03:29:46;;;;;;;2.22;1.98;;;2.10;1.00;;;;;;4923226;29;20224;-83
2023/02/04 03:32:15;;;;;;;4.28;1.40;;;;;;;;;;4924465;29;20246;-84
2023/02/04 03:34:41;;;;;;;3.33;1.77;;;2.10;1.00;;;;;;4922441;29;20682;-84
2023/02/04 03:37:09;;;;;;;1.98;1.33;;;2.00;1.00;;;;;;4924664;29;20276;-83
2023/02/04 03:39:36;;;;;;;2.45;2.20;;;2.00;1.00;;;;;;4924154;29;20228;-83
2023/02/04 03:42:03;;;;;;;2.30;1.80;;;2.00;1.00;;;;;;4924739;29;20663;-83
2023/02/04 03:44:29;;;;;;;4.82;1.70;;;2.00;1.00;;;;;;4925401;29;20218;-83
2023/02/04 03:46:56;;;;;;;6.20;1.55;;;1.70;1.00;;;;;;4924425;29;20271;-84
2023/02/04 03:49:25;;;;;;;2.00;1.50;;;2.00;1.00;;;;;;4925723;29;20262;-83
2023/02/04 03:51:52;;;;;;;7.70;1.75;;;1.70;1.00;;;;;;4926908;29;20207;-82
2023/02/04 03:54:18;;;;;;;2.45;1.63;;;2.20;1.00;;;;;;4936121;29;20213;-83
2023/02/04 03:56:45;;;;;;;3.63;1.30;;;2.00;1.00;;;;;;4938580;29;20271;-83
2023/02/04 03:59:12;;;;;;;1.80;1.70;;;1.80;1.00;;;;;;4937608;29;20223;-83
2023/02/04 04:01:39;;;;;;;2.92;1.55;;;1.90;1.00;;;;;;4929607;29;20244;-83
2023/02/04 04:04:06;;;;;;;1.52;1.42;;;2.00;1.00;;;;;;4925635;29;20240;-83
2023/02/04 04:06:34;;;;;;;1.85;1.45;;;2.00;1.00;;;;;;4926844;29;20275;-83
2023/02/04 04:09:01;;;;;;;5.68;3.30;;;2.00;1.00;;;;;;4927038;29;20238;-83
2023/02/04 04:11:28;;;;;;;2.88;2.10;;;2.00;1.00;;;;;;4925419;29;20272;-83
2023/02/04 04:13:54;;;;;;;2.53;1.42;;;1.90;1.00;;;;;;4925701;29;20227;-83
2023/02/04 04:16:21;;;;;;;2.22;1.90;;;2.00;1.00;;;;;;4925583;29;20208;-84
2023/02/04 04:18:48;;;;;;;1.38;1.27;;;2.00;1.00;;;;;;4926229;29;20283;-83
2023/02/04 04:21:15;;;;;;;3.90;1.90;;;1.70;1.00;;;;;;4923578;29;20303;-83
2023/02/04 04:23:43;;;;;;;4.25;1.65;;;2.00;1.00;;;;;;4926599;29;20218;-83
2023/02/04 04:26:10;;;;;;;5.78;1.98;;;2.10;1.00;;;;;;4935663;29;20211;-83
2023/02/04 04:28:37;;;;;;;4.15;1.90;;;2.00;1.00;;;;;;4930262;29;20218;-83
2023/02/04 04:31:04;;;;;;;2.95;1.60;;;2.10;1.00;;;;;;4927091;29;20681;-83
2023/02/04 04:33:31;;;;;;;2.15;1.40;;;2.40;1.00;;;;;;4928602;29;20290;-83
2023/02/04 04:35:58;;;;;;;1.60;1.20;;;2.60;1.00;;;;;;4927732;29;20295;-82
2023/02/04 04:38:24;;;;;;;2.05;1.58;;;1.90;1.00;;;;;;4926642;29;20303;-82
2023/02/04 04:40:53;;;;;;;1.77;1.67;;;2.20;1.00;;;;;;4926015;29;20248;-82
2023/02/04 04:43:20;;;;;;;1.35;1.23;;;2.20;1.00;;;;;;4926147;29;20234;-83
2023/02/04 04:45:47;;;;;;;12.65;6.68;;;2.20;1.00;;;;;;4926362;29;20218;-82
2023/02/04 04:48:13;;;;;;;2.78;1.90;;;2.10;1.00;;;;;;4926545;29;20212;-83
2023/02/04 04:50:40;;;;;;;4.88;3.58;;;2.10;1.00;;;;;;4925874;29;20314;-82
2023/02/04 04:53:10;;;;;;;3.83;1.63;;;2.20;1.00;;;;;;4925458;29;20746;-83
2023/02/04 04:55:36;;;;;;;2.58;1.33;;;2.10;1.00;;;;;;4924898;29;20509;-82
2023/02/04 04:58:05;;;;;;;2.45;1.38;;;2.00;1.00;;;;;;4923256;29;20651;-83
2023/02/04 05:00:31;;;;;;;1.98;1.80;;;2.30;1.00;;;;;;4925911;29;20227;-83
2023/02/04 05:02:58;;;;;;;4.30;1.60;;;2.10;1.00;;;;;;4928629;29;20197;-83
2023/02/04 05:05:25;;;;;;;1.73;1.00;;;2.00;1.00;;;;;;4924498;29;20243;-84
2023/02/04 05:07:53;;;;;;;1.90;1.40;;;2.00;1.00;;;;;;4926446;29;20226;-83
2023/02/04 05:10:20;;;;;;;1.88;1.30;;;2.00;1.00;;;;;;4928217;29;20263;-83
2023/02/04 05:12:47;;;;;;;1.20;1.10;;;1.90;1.00;;;;;;4927480;29;20204;-83
2023/02/04 05:15:15;;;;;;;1.42;1.33;;;2.00;1.00;;;;;;4926486;29;20212;-84
2023/02/04 05:17:42;;;;;;;1.92;1.70;;;1.90;1.00;;;;;;4925734;29;20275;-83
2023/02/04 05:20:10;;;;;;;6.40;1.58;;;1.90;1.00;;;;;;4925123;29;20239;-83
2023/02/04 05:22:36;;;;;;;2.42;1.50;;;1.60;1.00;;;;;;4926267;29;20208;-84
2023/02/04 05:25:03;;;;;;;2.47;1.45;;;1.80;1.00;;;;;;4926138;29;20234;-84
2023/02/04 05:27:30;;;;;;;2.45;1.65;;;1.80;1.00;;;;;;4927203;29;20689;-84
2023/02/04 05:29:57;;;;;;;4.80;2.10;;;1.90;1.00;;;;;;4929381;29;20224;-83
2023/02/04 05:32:25;;;;;;;3.22;1.55;;;2.40;1.00;;;;;;4928344;29;20237;-83
2023/02/04 05:34:52;;;;;;;2.55;1.83;;;1.70;1.00;;;;;;4928535;29;20230;-83
2023/02/04 05:37:19;;;;;;;1.88;1.77;;;1.70;1.00;;;;;;4925672;29;20210;-84
2023/02/04 05:39:47;;;;;;;1.67;1.50;;;1.70;1.00;;;;;;4925653;29;20267;-84
2023/02/04 05:42:14;;;;;;;6.28;2.45;;;1.70;1.00;;;;;;4925353;29;20349;-83
2023/02/04 05:44:40;;;;;;;3.55;1.83;;;1.70;1.00;;;;;;4930832;29;20298;-83
2023/02/04 05:47:07;;;;;;;2.60;1.75;;;1.70;1.00;;;;;;4931934;29;20271;-83
2023/02/04 05:49:36;;;;;;;5.80;1.50;;;;;;;;;;4930397;29;20318;-84
2023/02/04 05:52:03;;;;;;;3.28;1.73;;;1.70;1.00;;;;;;4928738;29;20272;-84
2023/02/04 05:54:30;;;;;;;4.47;1.42;;;1.70;1.00;;;;;;4932358;29;20208;-83
2023/02/04 05:56:56;;;;;;;1.98;1.88;;;1.60;1.00;;;;;;4939791;29;20274;-83
2023/02/04 05:59:23;;;;;;;3.42;3.08;;;1.60;1.00;;;;;;4939429;29;20232;-83
2023/02/04 06:01:50;;;;;;;4.80;2.10;;;1.70;1.00;;;;;;4937534;29;20251;-83
2023/02/04 06:04:17;;;;;;;4.85;1.80;;;1.60;1.00;;;;;;4927672;29;20240;-83
2023/02/04 06:06:45;;;;;;;1.60;1.50;;;1.60;1.00;;;;;;4924859;29;20208;-83
2023/02/04 06:09:12;;;;;;;2.10;1.80;;;1.50;1.00;;;;;;4925958;29;20586;-83
2023/02/04 06:11:39;;;;;;;3.17;2.03;;;1.60;1.00;;;;;;4925294;29;20295;-83
2023/02/04 06:14:06;;;;;;;3.35;1.58;;;1.70;1.00;;;;;;4926373;29;20650;-83
2023/02/04 06:16:34;;;;;;;2.75;1.60;;;1.60;1.00;;;;;;4925886;29;20216;-83
2023/02/04 06:19:00;;;;;;;5.38;1.80;;;1.60;1.00;;;;;;4924865;29;20240;-84
2023/02/04 06:21:27;;;;;;;3.03;2.00;;;1.50;1.00;;;;;;4925230;29;20216;-84
2023/02/04 06:23:56;;;;;;;3.03;2.13;;;1.70;1.00;;;;;;4925417;29;20235;-83
2023/02/04 06:26:22;;;;;;;2.70;1.95;;;1.50;1.00;;;;;;4924641;29;20638;-83
2023/02/04 06:28:49;;;;;;;3.97;2.05;;;1.50;1.00;;;;;;4924175;29;20318;-83
2023/02/04 06:31:16;;;;;;;4.93;2.20;;;1.10;1.00;;;;;;4924167;29;20299;-83
2023/02/04 06:33:43;;;;;;;2.45;1.83;;;1.40;1.00;;;;;;4924567;29;20291;-84
2023/02/04 06:36:10;;;;;;;3.63;1.60;;;1.40;1.00;;;;;;4926375;29;20243;-83
2023/02/04 06:38:37;;;;;;;4.43;2.40;;;1.50;1.00;;;;;;4928368;29;20211;-82
2023/02/04 06:41:05;;;;;;;4.03;2.10;;;1.40;1.00;;;;;;4931317;29;20288;-83
2023/02/04 06:43:32;;;;;;;2.35;1.63;;;1.20;1.00;;;;;;4925610;29;20240;-84
2023/02/04 06:45:59;;;;;;;2.30;1.60;;;1.30;1.00;;;;;;4929649;29;20207;-83
2023/02/04 06:48:27;;;;;;;2.78;2.20;;;1.00;1.00;;;;;;4933379;29;20242;-83
2023/02/04 06:50:54;;;;;;;4.45;1.88;;;1.30;1.00;;;;;;4935482;29;20268;-84
2023/02/04 06:53:20;;;;;;;4.05;2.28;;;1.40;1.00;;;;;;4937016;29;20212;-84
2023/02/04 06:55:47;;;;;;;2.85;2.63;;;1.40;1.00;;;;;;4935960;29;20215;-84
2023/02/04 06:58:15;;;;;;;7.55;2.60;;;1.40;1.00;;;;;;4931082;29;20267;-83
2023/02/04 07:00:42;;;;;;;3.05;2.45;;;1.40;1.00;;;;;;4932575;29;20231;-83
2023/02/04 07:03:09;;;;;;;3.35;1.75;;;1.40;1.00;;;;;;4933550;29;20211;-84
2023/02/04 07:05:36;;;;;;;1.90;1.80;;;1.30;1.00;;;;;;4926906;29;20224;-84
2023/02/04 07:08:03;;;;;;;3.28;2.42;;;1.40;3.20;;;;;;4934957;28;20188;-82
2023/02/04 07:10:31;;;;;;;6.80;2.65;;;1.30;24.00;;;;;;4942533;28;20204;-82
2023/02/04 07:12:57;;;;;;;2.40;2.03;;;1.40;1.00;;;;;;4942443;28;20212;-82
2023/02/04 07:15:26;;;;;;;1.95;1.70;;;1.40;1.00;;;;;;4930927;28;20204;-83
2023/02/04 07:17:52;;;;;;;8.43;2.95;;;1.70;22.90;;;;;;4921786;29;20208;-83
2023/02/04 07:20:19;;;;;;;3.20;2.03;;;1.40;1.00;;;;;;4977348;23;20255;-89
2023/02/04 07:22:47;;;;;;;4.22;2.35;;;;;;;;;;4958468;28;20214;-89
2023/02/04 07:25:16;;;;;;;5.20;2.60;;;1.40;1.00;;;;;;4949049;29;20245;-89
2023/02/04 07:27:43;;;;;;;2.65;2.45;;;;;;;;;;4941869;29;20207;-89
2023/02/04 07:30:11;;;;;;;2.25;2.03;;;;;;;;;;4932366;29;20244;-89
2023/02/04 07:32:40;;;;;;;2.65;1.55;;;;;;;;;;4927073;29;20620;-88
2023/02/04 07:35:08;;;;;;;4.93;2.00;;;1.40;1.00;;;;;;4921240;29;20246;-89
2023/02/04 07:37:35;;;;;;;3.05;2.00;;;;;;;;;;4921710;29;20215;-88
2023/02/04 07:40:02;;;;;;;4.55;2.35;;;;;;;;;;4920787;29;20278;-89
2023/02/04 07:42:29;;;;;;;5.78;2.40;;;1.50;1.00;;;;;;4923591;29;20299;-88
2023/02/04 07:44:56;;;;;;;2.30;2.05;;;1.50;1.00;;;;;;4927149;29;20724;-88
2023/02/04 07:47:23;;;;;;;2.97;2.15;;;1.60;1.00;;;;;;4921094;29;20211;-88
2023/02/04 07:49:55;;;;;;;2.88;2.42;;;;;;;;;;4920536;29;20228;-89
2023/02/04 07:52:22;;;;;;;5.55;2.42;;;;;;;;;;4926559;29;20229;-89
2023/02/04 07:54:51;;;;;;;10.60;6.18;;;1.60;1.00;;;;;;4920456;29;20234;-89
2023/02/04 07:57:18;;;;;;;4.65;2.53;;;1.60;1.00;;;;;;4920396;29;20204;-89
2023/02/04 07:59:45;;;;;;;5.95;2.60;;;;;;;;;;4920430;29;20238;-89
2023/02/04 08:02:12;;;;;;;6.20;3.58;;;1.60;32.00;;;;;;4920036;29;20234;-89
2023/02/04 08:04:48;;;;;;;5.45;3.08;;;1.40;1.00;;;;;;4922043;29;20259;-90
2023/02/04 08:07:20;;;;;;;5.88;2.83;;;;;;;;;;4929109;29;20216;-89
2023/02/04 08:09:50;;;;;;;2.40;2.20;;;;;;;;;;4935516;29;20227;-89
2023/02/04 08:12:17;;;;;;;3.35;2.05;;;1.50;1.00;;;;;;4935589;29;20214;-90
2023/02/04 08:14:52;;;;;;;3.90;2.33;;;1.80;1.00;;;;;;4935306;29;20248;-89
2023/02/04 08:17:30;;;;;;;6.13;2.95;;;;;;;;;;4934048;29;20250;-89
2023/02/04 08:20:01;;;;;;;3.25;2.50;;;;;;;;;;4935671;29;20294;-90
2023/02/04 08:22:33;;;;;;;7.05;3.05;;;1.90;1.00;;;;;;4931554;29;20295;-88
2023/02/04 08:25:01;;;;;;;5.72;3.40;;;;;;;;;;4934581;29;20283;-89
2023/02/04 08:27:33;;;;;;;6.38;2.55;;;2.00;1.00;;;;;;4940764;28;20204;-89
2023/02/04 08:30:05;;;;;;;6.95;3.17;;;1.80;1.00;;;;;;4938883;28;20216;-89
2023/02/04 08:32:41;;;;;;;2.47;2.00;;;;;;;;;;4941271;28;20176;-88
2023/02/04 08:35:23;;;;;;;2.10;1.90;;;2.20;1.00;;;;;;4941273;28;20219;-89
2023/02/04 08:37:51;;;;;;;5.82;2.20;;;2.20;1.00;;;;;;4939229;28;20238;-89
2023/02/04 08:40:18;;;;;;;3.85;3.03;;;2.30;1.00;;;;;;4926912;29;20251;-89
2023/02/04 08:42:45;;;;;;;3.25;2.28;;;;;;;;;;4922883;29;20235;-88
2023/02/04 08:45:12;;;;;;;3.50;2.15;;;2.30;1.00;;;;;;4922918;29;20283;-88
2023/02/04 08:47:39;;;;;;;3.15;2.15;;;2.30;1.00;;;;;;4922381;29;20231;-88
2023/02/04 08:50:07;;;;;;;2.55;2.30;;;2.20;1.00;;;;;;4923828;29;20261;-89
2023/02/04 08:52:35;;;;;;;2.75;2.28;;;;;;;;;;4921489;29;20212;-88
2023/02/04 08:55:04;;;;;;;3.95;3.65;;;2.30;1.00;;;;;;4921367;29;20207;-88
2023/02/04 08:57:32;;;;;;;4.38;2.60;;;;;;;;;;4923345;29;20211;-89
2023/02/04 09:00:00;;;;;;;3.35;2.85;;;;;;;;;;4922420;29;20239;-88
2023/02/04 09:02:27;;;;;;;3.50;2.20;;;2.50;1.00;;;;;;4923047;29;20582;-88
2023/02/04 09:04:54;;;;;;;6.70;2.42;;;2.20;1.00;;;;;;4922590;29;20267;-88
2023/02/04 09:07:21;;;;;;;6.35;1.90;;;;;;;;;;4922028;29;20236;-87
2023/02/04 09:09:48;;;;;;;4.40;2.30;;;3.30;1.00;;;;;;4922010;29;20768;-88
2023/02/04 09:12:16;;;;;;;6.85;2.10;;;2.80;1.00;;;;;;4927491;29;20208;-88
2023/02/04 09:14:43;;;;;;;2.97;1.92;;;3.10;1.00;;;;;;4928840;29;20212;-89
2023/02/04 09:17:17;;;;;;;2.10;1.88;;;2.90;1.00;;;;;;4939087;29;20242;-88
2023/02/04 09:19:45;;;;;;;7.07;1.85;;;2.60;99.90;;;;;;4935963;29;20250;-88
2023/02/04 09:22:15;;;;;;;2.70;2.50;;;2.60;99.90;;;;;;4933908;29;20235;-88
2023/02/04 09:24:42;;;;;;;5.15;1.90;;;;;;;;;;4932362;29;20232;-89
2023/02/04 09:27:12;;;;;;;2.90;2.00;;;;;;;;;;4927290;29;20264;-88
2023/02/04 09:29:40;;;;;;;3.08;1.45;;;2.70;99.90;;;;;;4926359;29;20235;-88
2023/02/04 09:32:07;;;;;;;3.70;2.25;;;2.80;1.00;;;;;;4935674;29;20204;-88
2023/02/04 09:34:36;;;;;;;5.35;2.00;;;3.00;1.00;;;;;;4938669;29;20204;-88
2023/02/04 09:37:03;;;;;;;6.28;2.50;;;2.90;1.00;;;;;;4937776;29;20361;-89
2023/02/04 09:39:30;;;;;;;1.60;1.50;;;;;;;;;;4936508;29;20256;-89
2023/02/04 09:41:59;;;;;;;2.28;2.05;;;3.00;99.90;;;;;;4932314;29;20271;-88
2023/02/04 09:44:28;;;;;;;3.67;1.85;;;3.00;99.90;;;;;;4928820;29;20699;-88
2023/02/04 09:47:00;;;;;;;7.10;1.67;;;2.90;99.90;;;;;;4928979;29;20556;-88
2023/02/04 09:49:28;;;;;;;4.20;1.77;;;3.00;99.90;;;;;;4937082;29;20228;-88
2023/02/04 09:51:56;;;;;;;2.65;2.45;;;3.10;99.90;;;;;;4935971;29;20211;-88
2023/02/04 09:54:24;;;;;;;3.80;1.90;;;;;;;;;;4933964;29;20643;-89
2023/02/04 09:56:51;;;;;;;5.15;2.15;;;;;;;;;;4935867;29;20196;-89
2023/02/04 09:59:20;;;;;;;3.67;1.83;;;3.40;99.90;;;;;;4935484;28;20228;-89
2023/02/04 10:01:52;;;;;;;2.10;1.75;;;;;;;;;;4929899;29;20224;-89
2023/02/04 10:04:23;;;;;;;2.40;1.85;;;3.30;66.80;;;;;;4930545;29;20188;-89
2023/02/04 10:06:50;;;;;;;1.70;1.60;;;;;;;;;;4930760;29;20216;-89
2023/02/04 10:09:18;;;;;;;2.35;1.50;;;3.10;99.90;;;;;;4930784;29;20212;-90
2023/02/04 10:11:48;;;;;;;2.97;1.65;;;3.40;1.00;;;;;;4928435;29;20212;-89
2023/02/04 10:14:18;;;;;;;1.65;1.55;;;3.20;59.10;;;;;;4926173;29;20246;-89
2023/02/04 10:16:54;;;;;;;4.15;1.55;;;3.50;1.00;;;;;;4926271;29;20204;-88
2023/02/04 10:19:23;;;;;;;5.15;2.22;;;3.50;1.00;;;;;;4926636;29;20188;-89
2023/02/04 10:21:51;;;;;;;3.88;1.90;;;3.60;1.00;;;;;;4928071;29;20208;-89
2023/02/04 10:24:20;;;;;;;2.47;1.77;;;3.50;1.00;;;;;;4926904;29;20238;-88
2023/02/04 10:26:47;;;;;;;3.13;1.77;;;3.10;1.00;;;;;;4928113;29;20235;-87
2023/02/04 10:29:17;;;;;;;5.35;1.50;;;3.10;1.00;;;;;;4927245;29;20212;-88
2023/02/04 10:31:46;;;;;;;2.15;1.40;;;3.40;1.00;;;;;;4936551;28;20212;-88
2023/02/04 10:34:22;;;;;;;1.23;1.13;;;3.70;99.90;;;;;;4942635;28;20263;-89
2023/02/04 10:36:53;;;;;;;3.97;1.70;;;3.60;99.90;;;;;;4942157;28;20188;-88
2023/02/04 10:39:22;;;;;;;2.55;1.52;;;3.70;99.90;;;;;;4933485;29;20208;-90
2023/02/04 10:41:54;;;;;;;1.25;1.15;;;3.60;99.90;;;;;;4926191;29;20231;-89
2023/02/04 10:44:27;;;;;;;1.42;1.20;;;3.60;88.50;;;;;;4931592;29;20240;-89
2023/02/04 10:46:59;;;;;;;1.25;1.15;;;3.30;99.90;;;;;;4930670;29;20200;-90
2023/02/04 10:49:29;;;;;;;1.95;1.33;;;3.70;99.90;;;;;;4929446;29;20307;-89
2023/02/04 10:52:02;;;;;;;2.58;1.77;;;3.60;99.90;;;;;;4932384;29;20591;-89
2023/02/04 10:54:34;;;;;;;2.85;1.88;;;3.60;99.90;;;;;;4934448;29;20251;-89
2023/02/04 10:57:09;;;;;;;3.22;2.60;;;3.60;99.90;;;;;;4932798;29;20219;-89
2023/02/04 10:59:37;;;;;;;1.40;1.30;;;3.60;99.90;;;;;;4930209;29;20657;-90
2023/02/04 11:02:36;;;;;;;2.53;1.20;;;3.50;99.90;;;;;;4928376;29;20235;-89
2023/02/04 11:05:04;;;;;;;4.82;1.55;;;3.60;99.90;;;;;;4933057;29;20207;-88
2023/02/04 11:07:37;;;;;;;3.30;1.35;;;3.80;99.90;;;;;;4924977;29;20276;-90
2023/02/04 11:10:05;;;;;;;1.60;1.33;;;;;;;;;;4926158;29;20259;-89
2023/02/04 11:12:41;;;;;;;1.65;1.55;;;3.80;1.00;;;;;;4924930;29;20203;-89
2023/02/04 11:15:41;;;;;;;1.52;1.42;;;4.10;99.90;;;;;;4922912;29;20287;-89
2023/02/04 11:18:11;;;;;;;2.55;1.45;;;4.10;1.00;;;;;;4925941;29;20263;-89
2023/02/04 11:20:39;;;;;;;2.47;1.88;;;4.20;1.00;;;;;;4926284;29;20227;-90
2023/02/04 11:23:39;;;;;;;1.80;1.35;;;4.20;1.00;;;;;;4924452;29;20573;-89
2023/02/04 11:26:09;;;;;;;1.45;1.05;;;4.10;1.00;;;;;;4926247;29;20208;-89
2023/02/04 11:28:48;;;;;;;2.13;1.40;;;4.00;1.00;;;;;;4927024;29;20207;-90
2023/02/04 11:31:28;;;;;;;1.77;1.40;;;3.80;99.90;;;;;;4929323;29;20256;-90
2023/02/04 11:34:25;;;;;;;2.00;1.10;;;3.80;1.00;;;;;;4927455;29;20211;-89
2023/02/04 11:37:21;;;;;;;4.30;1.52;;;3.70;1.00;;;;;;4927816;29;20231;-89
2023/02/04 11:39:51;;;;;;;2.75;1.70;;;3.70;1.00;;;;;;4924052;29;20286;-88
2023/02/04 11:42:22;;;;;;;1.90;1.80;;;3.90;53.60;;;;;;4927172;29;20231;-90
2023/02/04 11:44:50;;;;;;;3.03;1.70;;;;;;;;;;4926755;29;20212;-89
2023/02/04 11:47:17;;;;;;;4.07;1.42;;;3.70;99.90;;;;;;4924938;29;20699;-89
2023/02/04 11:49:48;;;;;;;2.00;1.83;;;4.00;99.90;;;;;;4924309;29;20224;-89
2023/02/04 11:52:45;;;;;;;2.13;1.60;;;4.00;99.90;;;;;;4924741;29;20188;-89
2023/02/04 11:55:18;;;;;;;1.95;1.40;;;4.00;2.70;;;;;;4932628;29;20228;-89
2023/02/04 11:57:45;;;;;;;1.70;1.42;;;;;;;;;;4939969;28;20259;-89
2023/02/04 12:00:15;;;;;;;2.63;1.25;;;3.80;99.90;;;;;;4928224;29;20259;-90
2023/02/04 12:02:46;;;;;;;1.67;1.27;;;3.80;1.00;;;;;;4930208;29;20635;-89
2023/02/04 12:05:17;;;;;;;1.23;1.13;;;3.80;1.00;;;;;;4930317;29;20199;-90
2023/02/04 12:07:45;;;;;;;1.42;1.30;;;;;;;;;;4932080;29;20192;-90
2023/02/04 12:10:23;;;;;;;1.20;1.10;;;3.80;99.90;;;;;;4938568;28;20303;-90
2023/02/04 12:12:56;;;;;;;1.63;1.52;;;3.80;99.90;;;;;;4927545;29;20207;-90
2023/02/04 12:15:34;;;;;;;2.63;1.02;;;4.00;83.80;;;;;;4927398;29;20190;-90
2023/02/04 12:18:06;;;;;;;2.85;1.60;;;3.70;99.90;;;;;;4932477;29;20199;-90
2023/02/04 12:20:35;;;;;;;2.85;1.05;;;;;;;;;;4929284;29;20671;-91
2023/02/04 12:23:03;;;;;;;1.83;1.02;;;3.50;1.00;;;;;;4926867;29;20271;-90
2023/02/04 12:25:30;;;;;;;1.88;1.65;;;;;;;;;;4926390;29;20227;-89
2023/02/04 12:27:59;;;;;;;1.45;1.10;;;4.20;1.00;;;;;;4924937;29;20211;-89
2023/02/04 12:30:28;;;;;;;4.72;2.22;;;4.60;1.00;;;;;;4931041;29;20211;-89
2023/02/04 12:32:56;;;;;;;4.40;1.42;;;;;;;;;;4977250;23;20585;-89
2023/02/04 12:35:23;;;;;;;1.40;1.30;;;;;;;;;;4947179;29;20226;-90
2023/02/04 12:37:50;;;;;;;3.05;1.35;;;;;;;;;;4955806;29;20211;-90
2023/02/04 12:40:19;;;;;;;2.65;1.10;;;3.90;99.90;;;;;;4944789;29;20216;-89
2023/02/04 12:42:46;;;;;;;1.17;1.05;;;;;;;;;;4936529;29;20231;-89
2023/02/04 12:45:17;;;;;;;2.35;1.35;;;4.00;99.90;;;;;;4935439;29;20203;-89
2023/02/04 12:47:45;;;;;;;1.35;1.25;;;;;;;;;;4933764;29;20208;-91
2023/02/04 12:50:21;;;;;;;1.27;1.20;;;4.00;1.00;;;;;;4924410;29;20715;-89
2023/02/04 12:52:48;;;;;;;1.38;1.27;;;;;;;;;;4930963;29;20259;-89
2023/02/04 12:55:16;;;;;;;1.60;1.30;;;;;;;;;;4943401;28;20187;-89
2023/02/04 12:57:43;;;;;;;4.63;1.63;;;;;;;;;;4944626;28;20212;-88
2023/02/04 13:00:12;;;;;;;2.28;1.25;;;;;;;;;;4944032;28;20219;-88
2023/02/04 13:02:41;;;;;;;1.17;1.10;;;3.70;1.00;;;;;;4943754;28;20232;-89
2023/02/04 13:05:09;;;;;;;2.33;1.65;;;;;;;;;;4944373;28;20188;-88
2023/02/04 13:07:39;;;;;;;1.20;1.10;;;;;;;;;;4944293;28;20231;-89
2023/02/04 13:10:08;;;;;;;3.00;1.73;;;;;;;;;;4943970;28;20219;-89
2023/02/04 13:12:36;;;;;;;3.00;1.42;;;;;;;;;;4943941;28;20204;-89
2023/02/04 13:15:03;;;;;;;3.17;2.05;;;;;;;;;;4943432;28;20208;-88
2023/02/04 13:17:41;;;;;;;2.40;1.40;;;3.80;99.90;;;;;;4934704;29;20272;-89
2023/02/04 13:20:09;;;;;;;1.70;1.60;;;3.80;99.90;;;;;;4978709;23;20231;-84
2023/02/04 13:22:35;;;;;;;1.10;1.00;;;3.70;99.90;;;;;;4947223;29;20235;-85
2023/02/04 13:25:02;;;;;;;2.03;1.67;;;3.60;99.90;;;;;;4947629;29;20294;-85